Tiempo atmosférico en la estación meteorológica de Martinet, Lleida (1038 m.)



Fecha
DESCASC
Temp. máxima en grados centígrados (hora)
DESCASC
Temp. mínima en grados centígrados (hora)
DESCASC
Temp. media en grados centígrados
DESCASC
Racha de viento máxima en m/sg (hora)
DESCASC
Velocidad máxima media en intervalos de 10 minutos(hora)
DESCASC
Precipitaciones diarias en mm
DESCASC
Precipitaciones de 00:00 a 06:00 en mm
DESCASC
Precipitaciones de 06:00 a 12:00 en mm
DESCASC
Precipitaciones de 12:00 a 18:00 en mm
DESCASC
Precipitaciones de 18:00 a 24:00 en mm
DESCASC
23-01-2021 5.2 (13:10) -2.7 (-00:0) 1.2 11.11 (13:30) 5.83 (13:50) 2 0 0 0 2
09-01-2021 0.5 (15:50) -2.6 (-00:0) -1 13.89 (18:30) 7.5 (18:00) 8.6 2.8 2.8 1.4 1.6
12-01-2021 1 (15:40) -12.7 (-00:0) -5.8 5 (20:40) 1.94 (20:40) 0 0 0 0 0
26-01-2021 10.3 (15:10) -5.8 (-00:0) 2.3 9.17 (17:10) 4.72 (17:10) 0 0 0 0 0
25-01-2021 9.4 (14:20) -3.4 (-00:0) 3 4.72 (12:20) 3.06 (16:50) 0 0 0 0 0
24-01-2021 9.6 (14:30) 0.4 (00:00) 5 12.22 (14:40) 6.39 (13:40) 3.2 3.2 0 0 0
22-01-2021 6.5 (12:10) 0.2 (00:00) 3.4 25.56 (09:10) 8.89 (09:20) 5.6 2.4 2.6 0.6 0
21-01-2021 8.7 (13:50) 2.5 (00:00) 5.6 12.78 (17:00) 5.83 (17:00) 0 0 0 0 0
20-01-2021 9.5 (15:20) -7.5 (-00:0) 1 11.11 (14:50) 5 (14:30) 0 0 0 0 0
19-01-2021 11.3 (15:30) -8.8 (-00:0) 1.3 6.67 (16:10) 3.61 (16:50) 0 0 0 0 0
18-01-2021 11.1 (15:40) -5.8 (-00:0) 2.7 5 (11:10) 2.5 (11:30) 0 0 0 0 0
17-01-2021 14.3 (13:10) -2.5 (-00:0) 5.9 12.78 (16:30) 4.72 (16:30) 0 0 0 0 0
16-01-2021 13.2 (15:30) -4.9 (-00:0) 4.1 12.5 (00:50) 4.44 (15:00) 0 0 0 0 0
15-01-2021 12.2 (13:40) -6 (-00:0) 3.1 11.67 (12:00) 6.11 (11:30) 0 0 0 0 0
14-01-2021 8.6 (15:40) -11 (08:50) -1.2 6.39 (02:50) 2.78 (02:50) 0 0 0 0 0
13-01-2021 9.4 (15:50) -5.8 (-00:0) 1.8 4.44 (05:10) 2.22 (05:00) 0 0 0 0 0
28-12-2020 5.6 (14:10) -1.2 (-00:0) 2.2 11.67 (15:10) 5.83 (15:20) 0 0 0 0 0
11-01-2021 3.9 (15:10) -13 (-00:0) -4.5 3.33 (20:00) 1.39 (18:40) 0 0 0 0 0
10-01-2021 2.2 (14:40) -3.9 (23:59) -0.9 10 (00:10) 5 (00:10) 9 3.6 3 2.4 0
08-01-2021 4.9 (15:00) -13.2 (-00:0) -4.1 4.17 (18:20) 2.5 (13:00) 0 0 0 0 0
07-01-2021 -1.2 (15:50) -11.5 (-00:0) -6.4 3.61 (12:40) 2.5 (14:30) 0 0 0 0 0
06-01-2021 5.8 (15:10) -13.7 (-00:0) -3.9 5.56 (10:30) 2.78 (10:30) 0 0 0 0 0
05-01-2021 4.7 (15:20) -10.5 (-00:0) -2.9 6.39 (14:50) 3.06 (15:50) 0 0 0 0 0
04-01-2021 4.4 (15:00) -10.1 (-00:0) -2.9 7.78 (15:10) 4.17 (15:50) 0 0 0 0 0
03-01-2021 7.7 (15:00) -7.2 (-00:0) 0.3 7.5 (06:50) 3.89 (06:50) 0 0 0 0 0
02-01-2021 4 (13:40) -8.9 (-00:0) -2.4 10 (14:00) 4.72 (18:50) 0 0 0 0 0
01-01-2021 7.1 (15:20) -4.6 (-00:0) 1.3 5.28 (12:20) 3.61 (12:20) 0 0 0 0 0
31-12-2020 6.4 (14:50) -7.4 (-00:0) -0.5 8.61 (15:20) 4.17 (15:20) 0 0 0 0 0
30-12-2020 6.1 (13:20) -7.3 (-00:0) -0.6 9.44 (12:50) 4.44 (12:50) 0 0 0 0 0
29-12-2020 5.9 (14:40) -5.1 (-00:0) 0.4 8.06 (15:00) 4.17 (13:00) 0 0 0 0 0

Gráficas

Temp. máximas Temp. mínimas Temp. medias Precipitaciones Rachas de viento máximas Velocidades máximas media en intervalos de 10 minutos

Datos horarios

Fecha y hora oficial Temperatura (ºC) Velocidad del viento (km/h) Dirección del viento Racha (km/h) Dirección de racha Precipitación (mm) Presión (hPa) Tendencia (hPa) Humedad (%)
2021-01-26 23:00:00 -0.7 0 Calma 7 Norte 0 -- -- 87
2021-01-26 22:00:00 -0.2 2 Noroeste 4 Norte 0 -- -- 85
2021-01-26 21:00:00 0.7 3 Norte 6 Nordeste 0 -- -- 81
2021-01-26 20:00:00 2.2 3 Noroeste 13 Oeste 0 -- -- 77
2021-01-26 19:00:00 3.5 3 Noroeste 12 Oeste 0 -- -- 72
2021-01-26 18:00:00 6 3 Norte 33 Oeste 0 -- -- 61
2021-01-26 17:00:00 7.8 16 Oeste 32 Oeste 0 -- -- 54
2021-01-26 16:00:00 9.6 10 Oeste 26 Oeste 0 -- -- 44
2021-01-26 15:00:00 10 8 Oeste 20 Sur 0 -- -- 37
2021-01-26 14:00:00 9.4 6 Oeste 15 Sudoeste 0 -- -- 35
2021-01-26 13:00:00 7.1 4 Este 18 Este 0 -- -- 33
2021-01-26 12:00:00 3.9 7 Este 15 Nordeste 0 -- -- 50
2021-01-26 11:00:00 0.5 4 Este 11 Este 0 -- -- 74
2021-01-26 10:00:00 -3.2 0 Calma 7 Este 0 -- -- 90
2021-01-26 09:00:00 -5.4 3 Este 6 Sudeste 0 -- -- 95
2021-01-26 08:00:00 -5.8 3 Sudeste 6 Este 0 -- -- 95
2021-01-26 07:00:00 -5.2 2 Nordeste 6 Nordeste 0 -- -- 90
2021-01-26 06:00:00 -4.8 2 Nordeste 5 Norte 0 -- -- 92
2021-01-26 05:00:00 -4.3 3 Nordeste 6 Nordeste 0 -- -- 90
2021-01-26 04:00:00 -3.7 3 Noroeste 7 Norte 0 -- -- 92
2021-01-26 03:00:00 -3.5 2 Sur 6 Sudeste 0 -- -- 93
2021-01-26 02:00:00 -2.7 2 Oeste 5 Noroeste 0 -- -- 88
2021-01-26 01:00:00 -2.3 3 Norte 7 Norte 0 -- -- 88
2021-01-26 00:00:00 -1.7 2 Sudeste 9 Nordeste 0 -- -- 89
2021-01-25 23:00:00 -0.8 4 Norte 10 Norte 0 -- -- 86
2021-01-25 22:00:00 -0.2 4 Norte 10 Norte 0 -- -- 86
2021-01-25 21:00:00 1 5 Norte 8 Nordeste 0 -- -- 86
2021-01-25 20:00:00 2.3 2 Este 7 Noroeste 0 -- -- 82
2021-01-25 19:00:00 3.7 3 Oeste 12 Norte 0 -- -- 77
2021-01-25 18:00:00 5.5 0 Calma 14 Este 0 -- -- 70
2021-01-25 17:00:00 6.9 10 Este 15 Nordeste 0 -- -- 65
2021-01-25 16:00:00 8.2 3 Este 14 Este 0 -- -- 62
2021-01-25 15:00:00 8.9 5 Este 9 Nordeste 0 -- -- 58
2021-01-25 14:00:00 9.2 4 Sudeste 10 Sur 0 -- -- 58
2021-01-25 13:00:00 6.3 5 Sur 17 Este 0 -- -- 67
2021-01-25 12:00:00 3.2 4 Este 13 Este 0 -- -- 77
2021-01-25 11:00:00 0.4 6 Este 13 Este 0 -- -- 90
2021-01-25 10:00:00 -1.4 4 Sudeste 10 Este 0 -- -- 97
2021-01-25 09:00:00 -2.5 0 Calma 4 Este 0 -- -- 97
2021-01-25 08:00:00 -3 0 Calma 4 Nordeste 0 -- -- 97
2021-01-25 07:00:00 -3.3 2 Sudeste 6 Nordeste 0 -- -- 96
2021-01-25 06:00:00 -2.9 3 Sudoeste 7 Noroeste 0 -- -- 96
2021-01-25 05:00:00 -2.7 0 Calma 5 Nordeste 0 -- -- 94
2021-01-25 04:00:00 -2.6 0 Calma 5 Norte 0 -- -- 94
2021-01-25 03:00:00 -2.1 0 Calma 5 Oeste 0 -- -- 91
2021-01-25 02:00:00 -1.2 3 Noroeste 9 Norte 0 -- -- 88
2021-01-25 01:00:00 0.3 4 Norte 12 Norte 0 -- -- 84
2021-01-25 00:00:00 1.3 4 Noroeste 14 Oeste 0 -- -- 80
2021-01-24 23:00:00 2.2 6 Noroeste 18 Noroeste 0 -- -- 79
2021-01-24 22:00:00 3.1 8 Oeste 24 Oeste 0 -- -- 76
2021-01-24 21:00:00 3.9 10 Oeste 35 Sudoeste 0 -- -- 73
2021-01-24 20:00:00 3.8 7 Oeste 28 Oeste 0 -- -- 72
2021-01-24 19:00:00 4.7 10 Sudoeste 27 Sur 0 -- -- 67
2021-01-24 18:00:00 5.6 11 Oeste 27 Oeste 0 -- -- 61
2021-01-24 17:00:00 7 9 Oeste 23 Sudoeste 0 -- -- 54
2021-01-24 16:00:00 8.1 9 Sudoeste 41 Sudoeste 0 -- -- 49
2021-01-24 15:00:00 9.2 20 Sudoeste 44 Sudoeste 0 -- -- 45
2021-01-24 14:00:00 9.2 21 Sudoeste 38 Sudoeste 0 -- -- 44
2021-01-24 13:00:00 8.5 15 Sudoeste 30 Sudoeste 0 -- -- 53
2021-01-24 12:00:00 6.3 12 Oeste 31 Sudoeste 0 -- -- 62
2021-01-24 11:00:00 4.6 12 Sudoeste 26 Sudoeste 0 -- -- 70
2021-01-24 10:00:00 2.1 3 Sudoeste 11 Nordeste 0 -- -- 98
2021-01-24 09:00:00 0.6 3 Noroeste 12 Oeste 0 -- -- 99
2021-01-24 08:00:00 1 10 Este 22 Este 0 -- -- 98
2021-01-24 07:00:00 0.9 4 Noroeste 13 Oeste 0 -- -- 98
2021-01-24 06:00:00 1.1 5 Noroeste 24 Oeste 0.2 -- -- 98
2021-01-24 05:00:00 0.9 5 Norte 15 Noroeste 1.2 -- -- 98
2021-01-24 04:00:00 0.5 4 Oeste 10 Oeste 0 -- -- 98
2021-01-24 03:00:00 0.4 2 Oeste 6 Noroeste 0.4 -- -- 97
2021-01-24 02:00:00 0.7 0 Calma 4 Nordeste 0.6 -- -- 95
2021-01-24 01:00:00 1.2 3 Norte 13 Oeste 0.8 -- -- 95
2021-01-24 00:00:00 2 8 Oeste 15 Oeste 2 -- -- 93
2021-01-23 23:00:00 2.6 5 Noroeste 21 Sudoeste 0 -- -- 89
2021-01-23 22:00:00 2.3 11 Oeste 26 Oeste 0 -- -- 87
2021-01-23 21:00:00 2.8 13 Oeste 34 Oeste 0 -- -- 86
2021-01-23 20:00:00 3.1 15 Oeste 31 Oeste 0 -- -- 84
2021-01-23 19:00:00 3.7 14 Oeste 31 Sudoeste 0 -- -- 79
2021-01-23 18:00:00 3.8 12 Oeste 35 Sudoeste 0 -- -- 74
2021-01-23 17:00:00 4.1 13 Oeste 39 Oeste 0 -- -- 73
2021-01-23 16:00:00 4 13 Oeste 33 Oeste 0 -- -- 73
2021-01-23 15:00:00 4.3 15 Oeste 34 Oeste 0 -- -- 70
2021-01-23 14:00:00 4.3 19 Oeste 40 Oeste 0 -- -- 68
2021-01-23 13:00:00 5.1 19 Oeste 33 Oeste 0 -- -- 65
2021-01-23 12:00:00 2.2 9 Oeste 20 Noroeste 0 -- -- 75
2021-01-23 11:00:00 0.6 8 Oeste 10 Oeste 0 -- -- 79
2021-01-23 10:00:00 -1.4 0 Calma 5 Este 0 -- -- 85
2021-01-23 09:00:00 -2.5 2 Nordeste 7 Norte 0 -- -- 88
2021-01-23 08:00:00 -1.7 4 Norte 18 Oeste 0 -- -- 82
2021-01-23 07:00:00 -1.3 5 Oeste 21 Oeste 0 -- -- 81
2021-01-23 06:00:00 -1.5 6 Oeste 16 Noroeste 0 -- -- 81
2021-01-23 05:00:00 -1 6 Noroeste 18 Oeste 0 -- -- 79
2021-01-23 04:00:00 -0.9 8 Noroeste 21 Oeste 0 -- -- 79
2021-01-23 03:00:00 -0.7 8 Oeste 15 Oeste 0 -- -- 79
2021-01-23 02:00:00 -0.5 6 Noroeste 15 Oeste 0 -- -- 78
2021-01-23 01:00:00 -0.1 4 Oeste 11 Oeste 0 -- -- 74
2021-01-23 00:00:00 1 6 Noroeste 17 Oeste 0 -- -- 70
2021-01-22 23:00:00 0.3 6 Noroeste 14 Oeste 0 -- -- 73
2021-01-22 22:00:00 0.7 4 Noroeste 14 Oeste 0 -- -- 71
2021-01-22 21:00:00 2.1 10 Oeste 28 Oeste 0 -- -- 67
2021-01-22 20:00:00 3.9 15 Sudoeste 42 Sudoeste 0 -- -- 53
2021-01-22 19:00:00 4.3 22 Sudoeste 64 Sudoeste 0 -- -- 56
2021-01-22 18:00:00 5 13 Sudoeste 42 Sudoeste 0 -- -- 55
2021-01-22 17:00:00 6.1 19 Sudoeste 43 Sudoeste 0 -- -- 58
2021-01-22 16:00:00 5.2 11 Sudoeste 29 Sudoeste 0.2 -- -- 79
2021-01-22 15:00:00 4.6 9 Sudoeste 28 Oeste 0 -- -- 84
2021-01-22 14:00:00 4 8 Oeste 32 Oeste 0.4 -- -- 86
2021-01-22 13:00:00 5.6 8 Oeste 35 Sudoeste 0 -- -- 74
2021-01-22 12:00:00 6 13 Sudoeste 25 Oeste 0 -- -- 78
2021-01-22 11:00:00 4.9 8 Oeste 42 Sudoeste 0 -- -- 83
2021-01-22 10:00:00 4.3 6 Noroeste 92 Sudoeste 1.6 -- -- 90
2021-01-22 09:00:00 6.1 9 Oeste 30 Oeste 0.6 -- -- 92
2021-01-22 08:00:00 5.4 5 Oeste 19 Noroeste 0.4 -- -- 95
2021-01-22 07:00:00 5.6 7 Noroeste 18 Noroeste 0 -- -- 96
2021-01-22 06:00:00 5.3 9 Noroeste 17 Noroeste 0.4 -- -- 98
2021-01-22 05:00:00 5 8 Oeste 18 Oeste 0.6 -- -- 98
2021-01-22 04:00:00 4.9 9 Oeste 17 Oeste 1 -- -- 97
2021-01-22 03:00:00 4.5 8 Noroeste 18 Oeste 0.4 -- -- 97
2021-01-22 02:00:00 4.6 8 Oeste 15 Oeste 0 -- -- 96
2021-01-22 01:00:00 4.6 8 Noroeste 17 Noroeste 0 -- -- 95
2021-01-22 00:00:00 4.8 9 Noroeste 18 Noroeste 0 -- -- 93
2021-01-21 23:00:00 5.4 9 Oeste 22 Noroeste 0 -- -- 87
2021-01-21 22:00:00 5.9 11 Oeste 29 Oeste 0 -- -- 81
2021-01-21 21:00:00 5.8 10 Oeste 26 Oeste 0 -- -- 77
2021-01-21 20:00:00 6 10 Oeste 35 Oeste 0 -- -- 74
2021-01-21 19:00:00 6.5 14 Oeste 35 Oeste 0 -- -- 71
2021-01-21 18:00:00 7.3 9 Oeste 35 Oeste 0 -- -- 67
2021-01-21 17:00:00 7.9 21 Sudoeste 46 Sudoeste 0 -- -- 63
2021-01-21 16:00:00 8.5 13 Sudoeste 41 Oeste 0 -- -- 63
2021-01-21 15:00:00 8.6 9 Oeste 39 Sudoeste 0 -- -- 66
2021-01-21 14:00:00 8.5 17 Sudoeste 35 Sudoeste 0 -- -- 64
2021-01-21 13:00:00 8.1 11 Sudoeste 26 Oeste 0 -- -- 66
2021-01-21 12:00:00 7.4 5 Sudoeste 13 Oeste 0 -- -- 73
2021-01-21 11:00:00 4.8 2 Este 5 Este 0 -- -- 84
2021-01-21 10:00:00 3.5 0 Calma 5 Este 0 -- -- 93
2021-01-21 09:00:00 2.6 0 Calma 8 Este 0 -- -- 94
2021-01-21 08:00:00 2.6 2 Norte 4 Nordeste 0 -- -- 94
2021-01-21 07:00:00 2.5 0 Calma 14 Este 0 -- -- 95
2021-01-21 06:00:00 2.6 0 Calma 5 Sudoeste 0 -- -- 94
2021-01-21 05:00:00 2.7 2 Norte 10 Oeste 0 -- -- 94
2021-01-21 04:00:00 2.9 3 Norte 11 Oeste 0 -- -- 93
2021-01-21 03:00:00 3.5 4 Oeste 16 Oeste 0 -- -- 89
2021-01-21 02:00:00 3.4 7 Oeste 15 Oeste 0 -- -- 89
2021-01-21 01:00:00 3.4 5 Oeste 13 Oeste 0 -- -- 89
2021-01-21 00:00:00 3.6 5 Oeste 12 Oeste 0 -- -- 88
2021-01-20 23:00:00 3.9 3 Oeste 18 Oeste 0 -- -- 88
2021-01-20 22:00:00 4.4 6 Oeste 20 Oeste 0 -- -- 83
2021-01-20 21:00:00 4.3 8 Oeste 30 Oeste 0 -- -- 82
2021-01-20 20:00:00 4.1 7 Oeste 28 Oeste 0 -- -- 85
2021-01-20 19:00:00 4.2 15 Oeste 33 Oeste 0 -- -- 85
2021-01-20 18:00:00 4.2 13 Oeste 28 Oeste 0 -- -- 83
2021-01-20 17:00:00 5.6 9 Oeste 39 Oeste 0 -- -- 67
2021-01-20 16:00:00 7.1 17 Oeste 34 Oeste 0 -- -- 60
2021-01-20 15:00:00 8.5 12 Oeste 40 Oeste 0 -- -- 56
2021-01-20 14:00:00 8.3 13 Oeste 27 Oeste 0 -- -- 50
2021-01-20 13:00:00 3.6 3 Este 11 Sudeste 0 -- -- 56
2021-01-20 12:00:00 0.4 3 Sudeste 9 Sudeste 0 -- -- 69
2021-01-20 11:00:00 -2.4 2 Sudeste 6 Sudeste 0 -- -- 82
2021-01-20 10:00:00 -5 2 Sudeste 6 Sur 0 -- -- 91
2021-01-20 09:00:00 -6.9 0 Calma 5 Sudeste 0 -- -- 94
2021-01-20 08:00:00 -7.5 2 Nordeste 7 Sudeste 0 -- -- 92
2021-01-20 07:00:00 -6.8 0 Calma 4 Oeste 0 -- -- 94
2021-01-20 06:00:00 -6.8 0 Calma 3 Sur 0 -- -- 92
2021-01-20 05:00:00 -6.5 0 Calma 4 Norte 0 -- -- 91
2021-01-20 04:00:00 -6.4 2 Norte 5 Sur 0 -- -- 91
2021-01-20 03:00:00 -5.6 0 Calma 5 Norte 0 -- -- 90
2021-01-20 02:00:00 -5.1 0 Calma 4 Este 0 -- -- 88
2021-01-20 01:00:00 -4.7 2 Sudoeste 4 Norte 0 -- -- 84
2021-01-20 00:00:00 -3.7 0 Calma 4 Nordeste 0 -- -- 80
2021-01-19 23:00:00 -3 2 Noroeste 4 Oeste 0 -- -- 78
2021-01-19 22:00:00 -1.9 0 Calma 6 Nordeste 0 -- -- 72
2021-01-19 21:00:00 -0.3 0 Calma 8 Norte 0 -- -- 67
2021-01-19 20:00:00 1.6 0 Calma 8 Oeste 0 -- -- 61
2021-01-19 19:00:00 3.9 4 Noroeste 12 Noroeste 0 -- -- 53
2021-01-19 18:00:00 5.8 5 Noroeste 18 Oeste 0 -- -- 45
2021-01-19 17:00:00 9 12 Oeste 24 Oeste 0 -- -- 38
2021-01-19 16:00:00 11 8 Sudoeste 23 Oeste 0 -- -- 34
2021-01-19 15:00:00 10.7 9 Oeste 17 Oeste 0 -- -- 35
2021-01-19 14:00:00 8.2 4 Sur 9 Sur 0 -- -- 36
2021-01-19 13:00:00 5.6 5 Sudeste 15 Este 0 -- -- 40
2021-01-19 12:00:00 1.6 5 Este 17 Este 0 -- -- 55
2021-01-19 11:00:00 -2.4 4 Sudeste 8 Este 0 -- -- 74
2021-01-19 10:00:00 -6.2 2 Sur 5 Norte 0 -- -- 88
2021-01-19 09:00:00 -8.8 0 Calma 3 Oeste 0 -- -- 91
2021-01-19 08:00:00 -8.5 0 Calma 8 Este 0 -- -- 92
2021-01-19 07:00:00 -8.4 2 Este 5 Sudeste 0 -- -- 91
2021-01-19 06:00:00 -7.9 0 Calma 3 Nordeste 0 -- -- 89
2021-01-19 05:00:00 -7.1 0 Calma 4 Nordeste 0 -- -- 88
2021-01-19 04:00:00 -6.7 0 Calma 8 Este 0 -- -- 87
2021-01-19 03:00:00 -6.8 3 Sudeste 6 Sudeste 0 -- -- 87
2021-01-19 02:00:00 -5.6 0 Calma 4 Nordeste 0 -- -- 84
2021-01-19 01:00:00 -5.1 0 Calma 4 Norte 0 -- -- 80
2021-01-19 00:00:00 -4.5 0 Calma 4 Este 0 -- -- 79
2021-01-18 23:00:00 -3.8 0 Calma 3 Oeste 0 -- -- 75
2021-01-18 22:00:00 -2.8 0 Calma 5 Este 0 -- -- 70
2021-01-18 21:00:00 -2 3 Oeste 5 Oeste 0 -- -- 63
2021-01-18 20:00:00 -1.1 4 Norte 6 Norte 0 -- -- 58
2021-01-18 19:00:00 0.7 0 Calma 7 Oeste 0 -- -- 47
2021-01-18 18:00:00 3 3 Noroeste 9 Oeste 0 -- -- 40
2021-01-18 17:00:00 7.2 4 Sudoeste 9 Oeste 0 -- -- 29
2021-01-18 16:00:00 10.8 4 Sur 7 Sur 0 -- -- 20
2021-01-18 15:00:00 10.9 4 Sudeste 9 Sudeste 0 -- -- 21
2021-01-18 14:00:00 9.2 5 Sudeste 12 Este 0 -- -- 23
2021-01-18 13:00:00 5.8 5 Este 14 Este 0 -- -- 33
2021-01-18 12:00:00 2 8 Este 18 Este 0 -- -- 47
2021-01-18 11:00:00 -1.1 3 Sudeste 9 Este 0 -- -- 63
2021-01-18 10:00:00 -5.1 0 Calma 5 Norte 0 -- -- 82
2021-01-18 09:00:00 -5.8 0 Calma 5 Nordeste 0 -- -- 79
2021-01-18 08:00:00 -5.5 0 Calma 3 Oeste 0 -- -- 75
2021-01-18 07:00:00 -5.1 0 Calma 7 Este 0 -- -- 76
2021-01-18 06:00:00 -4.6 0 Calma 4 Nordeste 0 -- -- 78
2021-01-18 05:00:00 -4.1 4 Norte 5 Norte 0 -- -- 69
2021-01-18 04:00:00 -3.4 3 Nordeste 5 Nordeste 0 -- -- 69
2021-01-18 03:00:00 -2.5 2 Este 6 Sudeste 0 -- -- 69
2021-01-18 02:00:00 -1.9 0 Calma 5 Nordeste 0 -- -- 67
2021-01-18 01:00:00 -0.7 0 Calma 6 Oeste 0 -- -- 59
2021-01-18 00:00:00 0 2 Noroeste 7 Norte 0 -- -- 63
2021-01-17 23:00:00 1.5 3 Noroeste 17 Noroeste 0 -- -- 58
2021-01-17 22:00:00 3.6 5 Norte 26 Nordeste 0 -- -- 49
2021-01-17 21:00:00 4.9 7 Nordeste 22 Nordeste 0 -- -- 50
2021-01-17 20:00:00 6.4 15 Nordeste 27 Este 0 -- -- 56
2021-01-17 19:00:00 7.2 10 Nordeste 26 Nordeste 0 -- -- 56
2021-01-17 18:00:00 9.6 11 Sudoeste 30 Oeste 0 -- -- 46
2021-01-17 17:00:00 11 13 Sudoeste 46 Sur 0 -- -- 43
2021-01-17 16:00:00 11.8 13 Sudoeste 43 Oeste 0 -- -- 44
2021-01-17 15:00:00 13.7 11 Sudoeste 27 Sudoeste 0 -- -- 43
2021-01-17 14:00:00 13.4 12 Sudoeste 31 Sudoeste 0 -- -- 44
2021-01-17 13:00:00 13.9 13 Sudoeste 35 Oeste 0 -- -- 44
2021-01-17 12:00:00 9.1 4 Sur 18 Oeste 0 -- -- 56
2021-01-17 11:00:00 5.5 4 Sudoeste 9 Sudeste 0 -- -- 66
2021-01-17 10:00:00 1.7 4 Sudeste 9 Sudeste 0 -- -- 78
2021-01-17 09:00:00 -1 3 Este 7 Sudeste 0 -- -- 85
2021-01-17 08:00:00 -1.4 3 Este 10 Oeste 0 -- -- 85
2021-01-17 07:00:00 -1.8 4 Este 11 Noroeste 0 -- -- 87
2021-01-17 06:00:00 -2.3 0 Calma 9 Noroeste 0 -- -- 86
2021-01-17 05:00:00 -1.9 3 Sur 9 Norte 0 -- -- 84
2021-01-17 04:00:00 -1.1 3 Sur 9 Nordeste 0 -- -- 81
2021-01-17 03:00:00 -1.5 4 Sudeste 9 Sudeste 0 -- -- 83
2021-01-17 02:00:00 -1 3 Noroeste 9 Noroeste 0 -- -- 80
2021-01-17 01:00:00 -0.5 4 Oeste 10 Sudoeste 0 -- -- 79
2021-01-17 00:00:00 -0.3 4 Oeste 8 Norte 0 -- -- 77
2021-01-16 23:00:00 0.3 2 Oeste 12 Norte 0 -- -- 72
2021-01-16 22:00:00 1.6 4 Oeste 10 Norte 0 -- -- 65
2021-01-16 21:00:00 1.9 4 Noroeste 8 Oeste 0 -- -- 63
2021-01-16 20:00:00 3 3 Noroeste 7 Norte 0 -- -- 57
2021-01-16 19:00:00 4.1 3 Oeste 17 Oeste 0 -- -- 53
2021-01-16 18:00:00 6.2 3 Noroeste 9 Oeste 0 -- -- 42
2021-01-16 17:00:00 9.1 0 Calma 13 Sur 0 -- -- 32
2021-01-16 16:00:00 11 11 Sudoeste 21 Norte 0 -- -- 25
2021-01-16 15:00:00 12.1 16 Este 31 Este 0 -- -- 21
2021-01-16 14:00:00 12.1 8 Este 24 Este 0 -- -- 18
2021-01-16 13:00:00 8.5 5 Sur 9 Sur 0 -- -- 23
2021-01-16 12:00:00 3 2 Este 8 Este 0 -- -- 35
2021-01-16 11:00:00 0 3 Este 7 Este 0 -- -- 50
2021-01-16 10:00:00 -2.1 3 Nordeste 10 Este 0 -- -- 59
2021-01-16 09:00:00 -4.7 4 Norte 10 Norte 0 -- -- 62
2021-01-16 08:00:00 -4.1 4 Norte 11 Norte 0 -- -- 59
2021-01-16 07:00:00 -2.7 3 Sur 18 Este 0 -- -- 60
2021-01-16 06:00:00 -0.6 8 Nordeste 22 Este 0 -- -- 51
2021-01-16 05:00:00 -1.3 8 Este 17 Nordeste 0 -- -- 56
2021-01-16 04:00:00 -2.9 4 Sudeste 12 Este 0 -- -- 67
2021-01-16 03:00:00 -2.2 3 Sudeste 13 Nordeste 0 -- -- 66
2021-01-16 02:00:00 -0.4 6 Nordeste 21 Este 0 -- -- 58
2021-01-16 01:00:00 2.7 10 Norte 45 Norte 0 -- -- 46
2021-01-16 00:00:00 3.4 13 Norte 41 Norte 0 -- -- 41
2021-01-15 23:00:00 3.7 14 Nordeste 31 Nordeste 0 -- -- 43
2021-01-15 22:00:00 2.5 6 Sur 31 Nordeste 0 -- -- 47
2021-01-15 21:00:00 -0.7 4 Noroeste 10 Este 0 -- -- 58
2021-01-15 20:00:00 -0.4 6 Nordeste 13 Oeste 0 -- -- 60
2021-01-15 19:00:00 2.1 3 Nordeste 26 Nordeste 0 -- -- 50
2021-01-15 18:00:00 4.3 18 Este 31 Este 0 -- -- 37
2021-01-15 17:00:00 7.4 8 Sudoeste 37 Oeste 0 -- -- 25
2021-01-15 16:00:00 8.9 18 Oeste 41 Oeste 0 -- -- 26
2021-01-15 15:00:00 10.1 6 Sudeste 28 Este 0 -- -- 27
2021-01-15 14:00:00 10.9 13 Este 21 Este 0 -- -- 28
2021-01-15 13:00:00 10.7 5 Sudoeste 36 Nordeste 0 -- -- 31
2021-01-15 12:00:00 8 17 Nordeste 42 Este 0 -- -- 30
2021-01-15 11:00:00 2.5 3 Sudoeste 13 Nordeste 0 -- -- 53
2021-01-15 10:00:00 -0.5 3 Noroeste 15 Norte 0 -- -- 67
2021-01-15 09:00:00 -2.8 4 Noroeste 14 Norte 0 -- -- 74
2021-01-15 08:00:00 -3.5 4 Noroeste 15 Noroeste 0 -- -- 79
2021-01-15 07:00:00 -4.9 4 Nordeste 15 Norte 0 -- -- 84
2021-01-15 06:00:00 -5.7 4 Nordeste 10 Norte 0 -- -- 85
2021-01-15 05:00:00 -6 4 Sudoeste 9 Nordeste 0 -- -- 89
2021-01-15 04:00:00 -5.6 3 Nordeste 8 Norte 0 -- -- 85
2021-01-15 03:00:00 -5.4 4 Norte 9 Este 0 -- -- 86
2021-01-15 02:00:00 -4.6 2 Nordeste 8 Sudeste 0 -- -- 85
2021-01-15 01:00:00 -4.5 3 Norte 8 Norte 0 -- -- 82
2021-01-15 00:00:00 -4.5 4 Este 8 Norte 0 -- -- 81
2021-01-14 23:00:00 -3.8 2 Este 8 Oeste 0 -- -- 80
2021-01-14 22:00:00 -2.8 3 Nordeste 9 Norte 0 -- -- 77
2021-01-14 21:00:00 -2.2 2 Oeste 7 Este 0 -- -- 72
2021-01-14 20:00:00 -2 3 Nordeste 9 Norte 0 -- -- 75
2021-01-14 19:00:00 -0.9 4 Sudeste 10 Oeste 0 -- -- 71
2021-01-14 18:00:00 2.2 2 Noroeste 6 Norte 0 -- -- 61
2021-01-14 17:00:00 5.2 2 Sudoeste 6 Oeste 0 -- -- 51
2021-01-14 16:00:00 8 3 Sudeste 6 Sudoeste 0 -- -- 42
2021-01-14 15:00:00 8 3 Sudeste 9 Sudeste 0 -- -- 40
2021-01-14 14:00:00 6.2 4 Sudeste 12 Este 0 -- -- 45
2021-01-14 13:00:00 2.6 4 Sudeste 8 Sur 0 -- -- 61
2021-01-14 12:00:00 -2.6 4 Sur 14 Este 0 -- -- 78
2021-01-14 11:00:00 -5.8 2 Este 9 Este 0 -- -- 88
2021-01-14 10:00:00 -8.6 2 Sur 10 Sur 0 -- -- 93
2021-01-14 09:00:00 -11 3 Sudeste 8 Sudeste 0 -- -- 93
2021-01-14 08:00:00 -10.1 2 Sudeste 8 Nordeste 0 -- -- 92
2021-01-14 07:00:00 -9.7 0 Calma 9 Este 0 -- -- 93
2021-01-14 06:00:00 -8.9 0 Calma 9 Sudeste 0 -- -- 95
2021-01-14 05:00:00 -8.1 2 Nordeste 9 Este 0 -- -- 96
2021-01-14 04:00:00 -7.6 2 Este 6 Este 0 -- -- 94
2021-01-14 03:00:00 -7.1 4 Sudoeste 23 Este 0 -- -- 94
2021-01-14 02:00:00 -6.6 3 Nordeste 8 Este 0 -- -- 94
2021-01-14 01:00:00 -5.9 2 Noroeste 8 Noroeste 0 -- -- 94
2021-01-14 00:00:00 -4.7 0 Calma 5 Nordeste 0 -- -- 93
2021-01-13 23:00:00 -4.1 2 Este 6 Sudeste 0 -- -- 94
2021-01-13 22:00:00 -2.9 0 Calma 7 Nordeste 0 -- -- 91
2021-01-13 21:00:00 -2 2 Norte 6 Norte 0 -- -- 89
2021-01-13 20:00:00 -1.1 0 Calma 5 Norte 0 -- -- 87
2021-01-13 19:00:00 0.5 2 Norte 6 Norte 0 -- -- 82
2021-01-13 18:00:00 2.7 4 Norte 7 Nordeste 0 -- -- 75
2021-01-13 17:00:00 5.8 2 Oeste 5 Oeste 0 -- -- 66
2021-01-13 16:00:00 8.8 3 Sudoeste 9 Sur 0 -- -- 53
2021-01-13 15:00:00 9.3 3 Sudeste 8 Sudeste 0 -- -- 54
2021-01-13 14:00:00 7.9 5 Sur 8 Sudoeste 0 -- -- 55
2021-01-13 13:00:00 3.7 3 Sur 7 Sur 0 -- -- 69
2021-01-13 12:00:00 1.8 2 Sudoeste 5 Nordeste 0 -- -- 75
2021-01-13 11:00:00 -1.7 3 Este 8 Sudeste 0 -- -- 86
2021-01-13 10:00:00 -4.4 2 Sur 10 Sudeste 0 -- -- 92
2021-01-13 09:00:00 -5.8 3 Sudeste 9 Sudeste 0 -- -- 94
2021-01-13 08:00:00 -4.5 3 Este 6 Sudeste 0 -- -- 95
2021-01-13 07:00:00 -3.9 4 Sudeste 10 Sudeste 0 -- -- 92
2021-01-13 06:00:00 -3 3 Sudeste 16 Sur 0 -- -- 90
2021-01-13 05:00:00 -3.3 8 Norte 15 Sur 0 -- -- 93
2021-01-13 04:00:00 -3 4 Norte 13 Norte 0 -- -- 94
2021-01-13 03:00:00 -3.2 4 Norte 9 Norte 0 -- -- 92
2021-01-13 02:00:00 -2.9 2 Nordeste 7 Norte 0 -- -- 92
2021-01-13 01:00:00 -3.2 2 Sur 7 Noroeste 0 -- -- 90
2021-01-13 00:00:00 -2.4 2 Sudeste 9 Norte 0 -- -- 89
2021-01-12 23:00:00 -2.5 4 Noroeste 9 Norte 0 -- -- 89
2021-01-12 22:00:00 -2.2 3 Norte 9 Nordeste 0 -- -- 87
2021-01-12 21:00:00 -2.5 3 Sur 18 Nordeste 0 -- -- 84
2021-01-12 20:00:00 -2.4 3 Sudoeste 6 Este 0 -- -- 86
2021-01-12 19:00:00 -2 3 Norte 6 Norte 0 -- -- 85
2021-01-12 18:00:00 -1.3 2 Sudeste 5 Norte 0 -- -- 74
2021-01-12 17:00:00 0.2 0 Calma 8 Sur 0 -- -- 66
2021-01-12 16:00:00 0.8 2 Sur 6 Sudeste 0 -- -- 64
2021-01-12 15:00:00 0.9 2 Sur 6 Sudeste 0 -- -- 65
2021-01-12 14:00:00 -0.2 0 Calma 15 Sudeste 0 -- -- 64
2021-01-12 13:00:00 -0.2 4 Sudeste 16 Este 0 -- -- 64
2021-01-12 12:00:00 -4 3 Sur 10 Sudeste 0 -- -- 73
2021-01-12 11:00:00 -7.5 4 Sudeste 9 Sudeste 0 -- -- 84
2021-01-12 10:00:00 -11.6 3 Sur 8 Sudeste 0 -- -- 91
2021-01-12 09:00:00 -12.5 3 Sudeste 5 Sudeste 0 -- -- 91
2021-01-12 08:00:00 -12 2 Norte 9 Este 0 -- -- 93
2021-01-12 07:00:00 -11.8 5 Nordeste 11 Nordeste 0 -- -- 92
2021-01-12 06:00:00 -12.5 2 Sur 8 Norte 0 -- -- 90
2021-01-12 05:00:00 -11.6 2 Nordeste 6 Nordeste 0 -- -- 91
2021-01-12 04:00:00 -11.9 3 Nordeste 10 Este 0 -- -- 91
2021-01-12 03:00:00 -11.5 2 Sudoeste 6 Nordeste 0 -- -- 91
2021-01-12 02:00:00 -10.6 3 Este 8 Sudeste 0 -- -- 92
2021-01-12 01:00:00 -10.2 3 Nordeste 7 Norte 0 -- -- 91
2021-01-12 00:00:00 -9 3 Nordeste 8 Norte 0 -- -- 89
2021-01-11 23:00:00 -8.6 3 Nordeste 8 Norte 0 -- -- 86
2021-01-11 22:00:00 -7.1 2 Noroeste 8 Oeste 0 -- -- 81
2021-01-11 21:00:00 -6.2 4 Norte 10 Noroeste 0 -- -- 80
2021-01-11 20:00:00 -5.6 4 Oeste 12 Norte 0 -- -- 81
2021-01-11 19:00:00 -4.3 3 Oeste 11 Norte 0 -- -- 80
2021-01-11 18:00:00 -2.4 3 Noroeste 8 Oeste 0 -- -- 78
2021-01-11 17:00:00 0.4 3 Oeste 9 Oeste 0 -- -- 73
2021-01-11 16:00:00 3.3 2 Sur 8 Sudoeste 0 -- -- 61
2021-01-11 15:00:00 3.7 3 Sudeste 9 Nordeste 0 -- -- 65
2021-01-11 14:00:00 2.1 4 Sudeste 8 Sudeste 0 -- -- 64
2021-01-11 13:00:00 -1.3 3 Sudeste 6 Sudeste 0 -- -- 76
2021-01-11 12:00:00 -6.1 2 Sudeste 7 Sur 0 -- -- 90
2021-01-11 11:00:00 -8.6 2 Sudoeste 8 Sudeste 0 -- -- 93
2021-01-11 10:00:00 -11 3 Sudeste 6 Sudeste 0 -- -- 94
2021-01-11 09:00:00 -13 2 Este 6 Nordeste 0 -- -- 92
2021-01-11 08:00:00 -12.3 4 Nordeste 7 Este 0 -- -- 92
2021-01-11 07:00:00 -11.2 3 Este 5 Sudeste 0 -- -- 94
2021-01-11 06:00:00 -10.3 2 Este 5 Sudeste 0 -- -- 93
2021-01-11 05:00:00 -8.8 3 Este 5 Sudeste 0 -- -- 95
2021-01-11 04:00:00 -7.2 2 Este 5 Este 0 -- -- 96
2021-01-11 03:00:00 -6 3 Nordeste 10 Este 0 -- -- 95
2021-01-11 02:00:00 -4.9 0 Calma 6 Norte 0 -- -- 96
2021-01-11 01:00:00 -4.5 0 Calma 5 Norte 0 -- -- 95
2021-01-11 00:00:00 -3.9 3 Norte 9 Norte 0 -- -- 93
2021-01-10 23:00:00 -2.6 5 Norte 9 Norte 0 -- -- 94
2021-01-10 22:00:00 -1.1 2 Norte 5 Norte 0 -- -- 95
2021-01-10 21:00:00 -0.9 0 Calma 8 Norte 0 -- -- 94
2021-01-10 20:00:00 -0.6 2 Noroeste 6 Norte 0 -- -- 94
2021-01-10 19:00:00 0 2 Sudoeste 4 Sudoeste 0 -- -- 94
2021-01-10 18:00:00 0.6 2 Oeste 5 Sudoeste 0 -- -- 90
2021-01-10 17:00:00 1.8 0 Calma 3 Sudeste 0 -- -- 87
2021-01-10 16:00:00 2 2 Oeste 5 Oeste 0 -- -- 81
2021-01-10 15:00:00 2.1 3 Sudoeste 5 Nordeste 0 -- -- 82
2021-01-10 14:00:00 1.7 2 Sudeste 11 Este 0 -- -- 84
2021-01-10 13:00:00 1 3 Este 9 Este 2.4 -- -- 88
2021-01-10 12:00:00 -0.2 3 Este 10 Norte 0.4 -- -- 90
2021-01-10 11:00:00 -0.6 5 Nordeste 11 Este 0.4 -- -- 89
2021-01-10 10:00:00 -1.4 6 Nordeste 14 Este 0.4 -- -- 94
2021-01-10 09:00:00 -1.8 7 Nordeste 15 Nordeste 0.8 -- -- 95
2021-01-10 08:00:00 -1.8 6 Nordeste 18 Este 0.4 -- -- 94
2021-01-10 07:00:00 -1.8 2 Este 21 Este 0.6 -- -- 95
2021-01-10 06:00:00 -1.6 8 Este 20 Este 1.2 -- -- 96
2021-01-10 05:00:00 -1.5 4 Nordeste 21 Este 1.6 -- -- 96
2021-01-10 04:00:00 -1.6 7 Este 19 Este 0 -- -- 93
2021-01-10 03:00:00 -1.9 6 Este 15 Este 0.4 -- -- 94
2021-01-10 02:00:00 -1.7 6 Este 19 Sudeste 0.2 -- -- 92
2021-01-10 01:00:00 -1.7 6 Este 36 Este 0.2 -- -- 91
2021-01-10 00:00:00 -1 17 Este 34 Este 0 -- -- 85
2021-01-09 23:00:00 -0.8 14 Este 38 Este 0 -- -- 88
2021-01-09 22:00:00 -1 16 Este 33 Este 0.4 -- -- 91
2021-01-09 21:00:00 -1.2 16 Este 34 Este 1 -- -- 96
2021-01-09 20:00:00 -0.8 9 Este 36 Este 0.2 -- -- 93
2021-01-09 19:00:00 -0.2 22 Este 50 Este 0 -- -- 88
2021-01-09 18:00:00 0.4 27 Este 49 Este 0 -- -- 79
2021-01-09 17:00:00 0.2 12 Este 37 Este 0 -- -- 83
2021-01-09 16:00:00 0.5 19 Este 41 Este 0 -- -- 81
2021-01-09 15:00:00 0.2 22 Este 47 Este 0.2 -- -- 88
2021-01-09 14:00:00 -0.4 21 Este 47 Este 1 -- -- 92
2021-01-09 13:00:00 -0.6 19 Este 41 Este 0.2 -- -- 92
2021-01-09 12:00:00 -0.7 21 Este 39 Nordeste 0.6 -- -- 94
2021-01-09 11:00:00 -0.8 19 Este 35 Este 0.4 -- -- 94
2021-01-09 10:00:00 -1.2 8 Este 26 Este 0 -- -- 92
2021-01-09 09:00:00 -2.1 9 Este 19 Nordeste 0.4 -- -- 94
2021-01-09 08:00:00 -2.4 7 Este 17 Este 0.4 -- -- 94
2021-01-09 07:00:00 -2.5 4 Este 14 Este 1 -- -- 94
2021-01-09 06:00:00 -2.6 4 Este 19 Este 1.2 -- -- 94
2021-01-09 05:00:00 -2.4 4 Este 20 Este 1 -- -- 93
2021-01-09 04:00:00 -2.1 10 Este 33 Este 0.6 -- -- 93
2021-01-09 03:00:00 -1.4 17 Este 36 Este 0 -- -- 87
2021-01-09 02:00:00 -1 13 Nordeste 21 Este 0 -- -- 48
2021-01-09 01:00:00 -1.8 2 Sudeste 8 Oeste 0 -- -- 53
2021-01-09 00:00:00 -1.8 4 Noroeste 8 Noroeste 0 -- -- 51
2021-01-08 23:00:00 -1.6 0 Calma 3 Oeste 0 -- -- 48
2021-01-08 22:00:00 -1.2 0 Calma 5 Nordeste 0 -- -- 45
2021-01-08 21:00:00 -0.8 2 Sudeste 9 Este 0 -- -- 42
2021-01-08 20:00:00 -0.2 6 Este 12 Este 0 -- -- 40
2021-01-08 19:00:00 0.6 3 Norte 15 Nordeste 0 -- -- 36
2021-01-08 18:00:00 2 6 Este 14 Este 0 -- -- 29
2021-01-08 17:00:00 3.4 2 Oeste 9 Nordeste 0 -- -- 30
2021-01-08 16:00:00 4.6 4 Este 9 Este 0 -- -- 24
2021-01-08 15:00:00 4.9 3 Sudeste 13 Este 0 -- -- 25
2021-01-08 14:00:00 3.9 7 Este 14 Este 0 -- -- 26
2021-01-08 13:00:00 1.4 9 Este 14 Nordeste 0 -- -- 32
2021-01-08 12:00:00 -1.9 4 Sudeste 9 Sudeste 0 -- -- 50
2021-01-08 11:00:00 -6.9 3 Sudeste 8 Sudeste 0 -- -- 73
2021-01-08 10:00:00 -9.8 3 Este 7 Sudeste 0 -- -- 85
2021-01-08 09:00:00 -13.1 0 Calma 5 Norte 0 -- -- 88
2021-01-08 08:00:00 -13.1 0 Calma 7 Sudeste 0 -- -- 89
2021-01-08 07:00:00 -12.6 0 Calma 5 Este 0 -- -- 85
2021-01-08 06:00:00 -11.9 2 Este 5 Sudeste 0 -- -- 85
2021-01-08 05:00:00 -11.2 2 Este 5 Sudeste 0 -- -- 88
2021-01-08 04:00:00 -10.3 3 Nordeste 5 Norte 0 -- -- 80
2021-01-08 03:00:00 -9.7 3 Nordeste 5 Nordeste 0 -- -- 80
2021-01-08 02:00:00 -8.7 0 Calma 6 Nordeste 0 -- -- 80
2021-01-08 01:00:00 -7.4 0 Calma 5 Norte 0 -- -- 81
2021-01-08 00:00:00 -6.4 2 Sudeste 6 Norte 0 -- -- 75
2021-01-07 23:00:00 -5.4 3 Este 6 Este 0 -- -- 74
2021-01-07 22:00:00 -4.3 2 Norte 4 Sur 0 -- -- 69
2021-01-07 21:00:00 -3.8 0 Calma 5 Este 0 -- -- 68
2021-01-07 20:00:00 -3.4 3 Este 7 Norte 0 -- -- 65
2021-01-07 19:00:00 -3 5 Nordeste 8 Nordeste 0 -- -- 63
2021-01-07 18:00:00 -2.4 0 Calma 4 Norte 0 -- -- 58
2021-01-07 17:00:00 -1.6 0 Calma 6 Este 0 -- -- 54
2021-01-07 16:00:00 -1.3 3 Sudeste 12 Este 0 -- -- 52
2021-01-07 15:00:00 -1.6 8 Este 13 Este 0 -- -- 52
2021-01-07 14:00:00 -2.2 4 Este 12 Este 0 -- -- 54
2021-01-07 13:00:00 -3.2 7 Este 13 Este 0 -- -- 60
2021-01-07 12:00:00 -4.3 3 Sudeste 9 Este 0 -- -- 67
2021-01-07 11:00:00 -6.4 3 Sudeste 9 Este 0 -- -- 78
2021-01-07 10:00:00 -9.3 0 Calma 8 Este 0 -- -- 89
2021-01-07 09:00:00 -10.7 0 Calma 4 Sur 0 -- -- 90
2021-01-07 08:00:00 -11.5 0 Calma 6 Sudeste 0 -- -- 89
2021-01-07 07:00:00 -11.2 2 Sudeste 4 Sudeste 0 -- -- 88
2021-01-07 06:00:00 -10.8 3 Nordeste 4 Este 0 -- -- 87
2021-01-07 05:00:00 -10.5 2 Este 6 Norte 0 -- -- 86
2021-01-07 04:00:00 -10.2 0 Calma 5 Norte 0 -- -- 84
2021-01-07 03:00:00 -10.2 0 Calma 4 Norte 0 -- -- 84
2021-01-07 02:00:00 -10.1 2 Sudeste 5 Sudeste 0 -- -- 82
2021-01-07 01:00:00 -9.3 0 Calma 4 Norte 0 -- -- 78
2021-01-07 00:00:00 -8.5 2 Este 4 Nordeste 0 -- -- 76
2021-01-06 23:00:00 -7.6 2 Noroeste 6 Norte 0 -- -- 71
2021-01-06 22:00:00 -7 3 Norte 9 Norte 0 -- -- 69
2021-01-06 21:00:00 -6.1 0 Calma 5 Oeste 0 -- -- 64
2021-01-06 20:00:00 -5.1 3 Oeste 6 Oeste 0 -- -- 59
2021-01-06 19:00:00 -3.4 0 Calma 8 Norte 0 -- -- 53
2021-01-06 18:00:00 -1.8 5 Norte 9 Oeste 0 -- -- 46
2021-01-06 17:00:00 1.6 6 Oeste 18 Oeste 0 -- -- 36
2021-01-06 16:00:00 4.9 8 Sudoeste 20 Sudoeste 0 -- -- 30
2021-01-06 15:00:00 5.4 8 Oeste 19 Oeste 0 -- -- 30
2021-01-06 14:00:00 3.4 5 Oeste 11 Sudoeste 0 -- -- 34
2021-01-06 13:00:00 0.9 5 Sudeste 11 Este 0 -- -- 46
2021-01-06 12:00:00 -3.9 4 Sudeste 14 Este 0 -- -- 59
2021-01-06 11:00:00 -6.7 7 Este 20 Este 0 -- -- 72
2021-01-06 10:00:00 -10.9 2 Este 6 Este 0 -- -- 89
2021-01-06 09:00:00 -13.7 2 Este 4 Este 0 -- -- 89
2021-01-06 08:00:00 -13.4 2 Nordeste 4 Nordeste 0 -- -- 89
2021-01-06 07:00:00 -13.2 0 Calma 5 Este 0 -- -- 89
2021-01-06 06:00:00 -13 2 Sudeste 5 Sudeste 0 -- -- 89
2021-01-06 05:00:00 -12.4 0 Calma 5 Nordeste 0 -- -- 88
2021-01-06 04:00:00 -11.7 2 Sudeste 4 Este 0 -- -- 88
2021-01-06 03:00:00 -11.1 0 Calma 5 Nordeste 0 -- -- 86
2021-01-06 02:00:00 -10.5 3 Nordeste 5 Nordeste 0 -- -- 86
2021-01-06 01:00:00 -9.8 3 Nordeste 5 Norte 0 -- -- 80
2021-01-06 00:00:00 -9 0 Calma 4 Nordeste 0 -- -- 76
2021-01-05 23:00:00 -8 0 Calma 6 Nordeste 0 -- -- 70
2021-01-05 22:00:00 -6.6 0 Calma 4 Oeste 0 -- -- 64
2021-01-05 21:00:00 -5.8 0 Calma 5 Norte 0 -- -- 62
2021-01-05 20:00:00 -4.4 2 Norte 7 Oeste 0 -- -- 62
2021-01-05 19:00:00 -3.5 5 Oeste 8 Oeste 0 -- -- 60
2021-01-05 18:00:00 -1.6 2 Nordeste 14 Este 0 -- -- 57
2021-01-05 17:00:00 0.7 0 Calma 13 Oeste 0 -- -- 46
2021-01-05 16:00:00 3.2 6 Oeste 19 Sudoeste 0 -- -- 41
2021-01-05 15:00:00 4.1 7 Sudoeste 23 Oeste 0 -- -- 41
2021-01-05 14:00:00 0.9 5 Sur 10 Sur 0 -- -- 54
2021-01-05 13:00:00 -1.5 2 Este 7 Sudeste 0 -- -- 64
2021-01-05 12:00:00 -3 3 Sudeste 6 Sur 0 -- -- 72
2021-01-05 11:00:00 -5.6 2 Sudoeste 5 Sudeste 0 -- -- 84
2021-01-05 10:00:00 -7.9 0 Calma 8 Nordeste 0 -- -- 92
2021-01-05 09:00:00 -9.5 3 Este 6 Este 0 -- -- 93
2021-01-05 08:00:00 -10.1 2 Sudeste 4 Norte 0 -- -- 92
2021-01-05 07:00:00 -10.5 3 Nordeste 5 Nordeste 0 -- -- 92
2021-01-05 06:00:00 -10.2 4 Nordeste 7 Norte 0 -- -- 90
2021-01-05 05:00:00 -9.5 2 Norte 6 Norte 0 -- -- 89
2021-01-05 04:00:00 -9 0 Calma 6 Norte 0 -- -- 88
2021-01-05 03:00:00 -8.5 0 Calma 6 Noroeste 0 -- -- 88
2021-01-05 02:00:00 -8.3 0 Calma 7 Norte 0 -- -- 86
2021-01-05 01:00:00 -7.6 2 Norte 6 Norte 0 -- -- 85
2021-01-05 00:00:00 -7 0 Calma 6 Nordeste 0 -- -- 82
2021-01-04 23:00:00 -6.4 2 Nordeste 6 Norte 0 -- -- 80
2021-01-04 22:00:00 -5.7 0 Calma 5 Norte 0 -- -- 77
2021-01-04 21:00:00 -4.9 2 Noroeste 6 Oeste 0 -- -- 74
2021-01-04 20:00:00 -4 3 Oeste 5 Sudoeste 0 -- -- 69
2021-01-04 19:00:00 -3.2 4 Oeste 7 Noroeste 0 -- -- 65
2021-01-04 18:00:00 -1.2 2 Sudoeste 19 Sur 0 -- -- 58
2021-01-04 17:00:00 0.9 10 Sudoeste 28 Sudoeste 0 -- -- 53
2021-01-04 16:00:00 3 13 Sudoeste 28 Sudoeste 0 -- -- 44
2021-01-04 15:00:00 4.4 14 Sudoeste 27 Sudoeste 0 -- -- 41
2021-01-04 14:00:00 3.7 8 Sudoeste 27 Oeste 0 -- -- 45
2021-01-04 13:00:00 2.2 9 Sudoeste 22 Oeste 0 -- -- 52
2021-01-04 12:00:00 -1.9 4 Sudoeste 9 Oeste 0 -- -- 59
2021-01-04 11:00:00 -5.4 3 Sur 5 Sur 0 -- -- 70
2021-01-04 10:00:00 -8.9 2 Sudeste 4 Nordeste 0 -- -- 86
2021-01-04 09:00:00 -9.8 0 Calma 5 Nordeste 0 -- -- 85
2021-01-04 08:00:00 -9.7 3 Norte 6 Sudoeste 0 -- -- 84
2021-01-04 07:00:00 -9.3 5 Este 16 Este 0 -- -- 85
2021-01-04 06:00:00 -9.4 3 Este 5 Sudeste 0 -- -- 83
2021-01-04 05:00:00 -9.8 0 Calma 4 Nordeste 0 -- -- 85
2021-01-04 04:00:00 -9.5 2 Este 8 Este 0 -- -- 81
2021-01-04 03:00:00 -9.4 0 Calma 5 Este 0 -- -- 80
2021-01-04 02:00:00 -8.7 0 Calma 5 Nordeste 0 -- -- 76
2021-01-04 01:00:00 -7.9 3 Nordeste 6 Norte 0 -- -- 71
2021-01-04 00:00:00 -7.2 0 Calma 5 Nordeste 0 -- -- 67
2021-01-03 23:00:00 -6.1 2 Norte 4 Nordeste 0 -- -- 62
2021-01-03 22:00:00 -5.2 2 Nordeste 4 Este 0 -- -- 60
2021-01-03 21:00:00 -4.4 0 Calma 7 Nordeste 0 -- -- 57
2021-01-03 20:00:00 -3.7 4 Nordeste 8 Norte 0 -- -- 56
2021-01-03 19:00:00 -2 3 Noroeste 9 Norte 0 -- -- 47
2021-01-03 18:00:00 -0.5 4 Norte 6 Norte 0 -- -- 38
2021-01-03 17:00:00 2.9 2 Sudeste 10 Sudoeste 0 -- -- 29
2021-01-03 16:00:00 6.4 6 Sudoeste 14 Sudoeste 0 -- -- 25
2021-01-03 15:00:00 7.7 7 Sudoeste 14 Sudoeste 0 -- -- 25
2021-01-03 14:00:00 7.1 4 Sur 12 Sudoeste 0 -- -- 26
2021-01-03 13:00:00 4.7 5 Este 21 Este 0 -- -- 30
2021-01-03 12:00:00 2.4 8 Este 19 Este 0 -- -- 34
2021-01-03 11:00:00 -0.4 3 Sur 6 Sudeste 0 -- -- 40
2021-01-03 10:00:00 -3.8 0 Calma 5 Nordeste 0 -- -- 51
2021-01-03 09:00:00 -4.3 3 Oeste 9 Oeste 0 -- -- 53
2021-01-03 08:00:00 -3.6 6 Oeste 22 Este 0 -- -- 48
2021-01-03 07:00:00 -2.8 8 Este 27 Este 0 -- -- 44
2021-01-03 06:00:00 -4.6 3 Este 8 Norte 0 -- -- 52
2021-01-03 05:00:00 -4.6 5 Oeste 9 Sudoeste 0 -- -- 52
2021-01-03 04:00:00 -4.2 2 Norte 8 Noroeste 0 -- -- 48
2021-01-03 03:00:00 -3.3 5 Noroeste 15 Este 0 -- -- 42
2021-01-03 02:00:00 -2.6 5 Sudeste 17 Sudeste 0 -- -- 37
2021-01-03 01:00:00 -2.1 3 Noroeste 17 Nordeste 0 -- -- 35
2021-01-03 00:00:00 -1.1 3 Oeste 27 Nordeste 0 -- -- 31
2021-01-02 23:00:00 0.3 10 Nordeste 32 Este 0 -- -- 26
2021-01-02 22:00:00 -0.3 5 Sudeste 17 Este 0 -- -- 29
2021-01-02 21:00:00 0 4 Norte 27 Este 0 -- -- 29
2021-01-02 20:00:00 1 6 Nordeste 29 Este 0 -- -- 26
2021-01-02 19:00:00 1.6 14 Este 34 Este 0 -- -- 24
2021-01-02 18:00:00 1.9 8 Nordeste 28 Nordeste 0 -- -- 22
2021-01-02 17:00:00 2.2 12 Nordeste 31 Nordeste 0 -- -- 24
2021-01-02 16:00:00 2.9 13 Noroeste 35 Norte 0 -- -- 22
2021-01-02 15:00:00 3.1 13 Norte 29 Noroeste 0 -- -- 22
2021-01-02 14:00:00 3.8 9 Norte 36 Noroeste 0 -- -- 23